Terminal Aerodrome Forecast
Issued by NWS

Home | Current Version | Previous Version | Text Only | Print | Product List | Glossary On
Versions: 1 2 3 4 5 6 7 8 9 10 11 12 13 14 15
000
FTUS46 KSGX 251721
TAFSNA
TAF
KSNA 251721Z 2518/2618 20006KT P6SM BKN022
     FM252000 23011KT P6SM VCSH SCT015 BKN025
     FM252200 23011KT P6SM VCSH FEW015 SCT025
     FM260200 VRB06KT P6SM SCT015 SCT025
     FM260500 VRB05KT P6SM BKN015
     FM261600 VRB05KT P6SM SCT020=

USA.gov is the U.S. government's official web portal to all federal, state and local government web resources and services.